Track Крылов Дмитрий

Time Latitude Longitude Accuracy (66% radius in meters) Altitude (meters) Speed (km/hour) Bearing (degrees) Battery (%) GPS flag
08:54:35 60.370964 29.556305 12 70.854583617549 0.29864138364792 168.67385864258 89 1 delete
08:54:23 60.370960 29.556305 6 70.478366048688 0.33092331886292 322.16613769531 89 1 delete
08:54:11 60.370965 29.556356 6 71.286927362154 0.32897451519966 180.86851501465 89 1 delete
08:54:05 60.370970 29.556375 12 72.303784721278 0.32453259825706 21.16569519043 89 1 delete
08:53:59 60.370934 29.556401 8 73.588968309543 0.30421528220177 29.067985534668 89 1 delete
08:53:50 60.370927 29.556436 6 74.06444698254 0.48849815130234 124.88258361816 89 1 delete
08:53:47 60.370937 29.556410 8 74.767098902862 0.056746337562799 200.76148986816 89 1 delete
08:53:38 60.370990 29.556340 8 75.4626837203 0.031051443889737 319.27166748047 89 1 delete
08:53:26 60.371012 29.556358 4 75.173040911287 0.02598063647747 316.91748046875 89 1 delete
08:53:14 60.371015 29.556410 6 75.828572085159 0.13030062615871 316.91748046875 89 1 delete
08:53:02 60.371013 29.556377 6 76.887927982184 0.20033378899097 99.317565917969 89 1 delete
08:52:50 60.371000 29.556361 6 78.17419558022 0.13264295458794 142.75436401367 89 1 delete
08:52:41 60.371010 29.556349 8 78.499204405492 0.18955916166306 142.75436401367 89 1 delete
08:52:29 60.370994 29.556319 12 78.575595649487 0.25496366620064 117.96451568604 89 1 delete
08:52:17 60.370988 29.556328 6 77.867633621853 0.090233936905861 245.0318145752 89 1 delete
08:52:05 60.370981 29.556371 8 76.601937238461 0.23298770189285 107.9319152832 89 1 delete
08:51:56 60.370977 29.556371 8 76.062421915973 0.35175335407257 170.51672363281 89 1 delete
08:51:53 60.370981 29.556353 6 75.81290582445 0.043330185115337 30.878858566284 89 1 delete
08:51:41 60.370985 29.556308 6 75.027596762745 0.25144386291504 216.40213012695 89 1 delete
08:51:29 60.370990 29.556296 6 74.196555516368 0.37331277132034 242.42582702637 89 1 delete
08:51:20 60.370993 29.556275 6 73.584707216094 0.37290531396866 90.36287689209 89 1 delete
08:51:08 60.370999 29.556258 4 72.843661293736 0.0064284661784768 188.98036193848 89 1 delete
08:50:56 60.370994 29.556280 6 72.668201038069 0.016150088980794 188.98036193848 89 1 delete
08:50:44 60.370995 29.556320 4 72.511395266689 0.016416236758232 188.98036193848 89 1 delete
08:50:35 60.370985 29.556323 4 72.436206080463 0.049299273639917 188.98036193848 89 1 delete
08:50:23 60.370975 29.556329 4 72.359309248403 0.039928168058395 188.98036193848 89 1 delete
08:50:11 60.370977 29.556288 4 72.267024960853 0.012868896126747 188.98036193848 89 1 delete
08:49:59 60.371000 29.556274 4 72.035400844411 0.039507128298283 188.98036193848 89 1 delete
08:49:50 60.370989 29.556255 4 71.79832384461 0.023138903081417 188.98036193848 89 1 delete
08:49:38 60.370998 29.556264 4 71.526886734806 0.021567285060883 188.98036193848 89 1 delete
08:49:26 60.370985 29.556265 4 71.266795591751 0.02863560244441 188.98036193848 89 1 delete
08:49:14 60.370980 29.556269 4 71.049015196712 0.026656376197934 188.98036193848 89 1 delete
08:49:05 60.370995 29.556292 4 70.890205153258 0.035788409411907 188.98036193848 89 1 delete
08:48:53 60.371002 29.556318 4 70.760117895702 0.019744090735912 188.98036193848 89 1 delete
08:48:41 60.370974 29.556289 4 70.658187495377 0.027414500713348 188.98036193848 89 1 delete
08:48:32 60.370963 29.556281 4 70.610729448072 0.053291279822588 188.98036193848 89 1 delete
08:48:20 60.370975 29.556302 4 70.573828063333 0.04421578347683 188.98036193848 89 1 delete
08:48:08 60.370993 29.556320 4 70.392955623637 0.033347345888615 188.98036193848 89 1 delete
08:47:56 60.370987 29.556336 4 70.221615816937 0.025548757985234 188.98036193848 89 1 delete
08:47:44 60.370986 29.556318 4 70.092767773842 0.050363007932901 188.98036193848 89 1 delete
08:47:35 60.370979 29.556304 4 70.019514884142 0.034840524196625 188.98036193848 89 1 delete
08:47:23 60.370978 29.556296 4 69.949002738545 0.0093265445902944 188.98036193848 89 1 delete
08:47:11 60.370971 29.556262 4 69.862279273552 0.022167611867189 188.98036193848 89 1 delete
08:46:59 60.370974 29.556272 4 69.735735383995 0.0056199724785984 188.98036193848 89 1 delete
08:46:47 60.370985 29.556280 4 69.592865195545 0.047295439988375 188.98036193848 89 1 delete
08:46:41 60.370976 29.556265 4 69.51126381191 0.027747681364417 188.98036193848 89 1 delete
08:46:35 60.370963 29.556260 4 69.390156141779 0.048372626304626 188.98036193848 89 1 delete
08:46:26 60.370962 29.556255 4 69.220896114242 0.019191050902009 188.98036193848 89 1 delete
08:46:17 60.370931 29.556234 4 69.10944757898 0.024310182780027 188.98036193848 89 1 delete
08:46:14 60.370898 29.556211 4 69.061713169152 0.01621538028121 188.98036193848 89 1 delete